createdAt,value
2018-12-30T00:02:27.366Z,9.40
2018-12-30T00:05:18.048Z,14.33
2018-12-30T00:08:08.058Z,11.38
2018-12-30T00:10:59.071Z,7.35
2018-12-30T00:13:49.628Z,17.20
2018-12-30T00:16:39.480Z,9.95
2018-12-30T00:19:29.037Z,11.15
2018-12-30T00:22:18.938Z,11.75
2018-12-30T00:25:08.106Z,10.00
2018-12-30T00:27:58.058Z,10.80
2018-12-30T00:30:48.025Z,7.60
2018-12-30T00:33:37.645Z,8.88
2018-12-30T00:36:27.589Z,5.35
2018-12-30T00:39:17.295Z,8.40
2018-12-30T00:42:08.899Z,4.12
2018-12-30T00:44:58.735Z,4.05
2018-12-30T00:47:48.635Z,3.37
2018-12-30T00:50:38.605Z,4.05
2018-12-30T00:53:28.235Z,3.30
2018-12-30T00:56:18.236Z,4.33
2018-12-30T00:59:08.188Z,4.08
2018-12-30T01:01:58.396Z,3.72
2018-12-30T01:04:50.925Z,4.12
2018-12-30T01:07:40.315Z,4.85
2018-12-30T01:10:30.275Z,5.35
2018-12-30T01:13:20.076Z,4.65
2018-12-30T01:16:09.955Z,7.80
2018-12-30T01:18:59.835Z,5.10
2018-12-30T01:21:49.204Z,9.75
2018-12-30T01:24:39.209Z,3.72
2018-12-30T01:27:28.767Z,7.25
2018-12-30T01:30:18.679Z,7.42
2018-12-30T01:33:08.415Z,7.05
2018-12-30T01:35:58.508Z,9.75
2018-12-30T01:38:48.074Z,3.72
2018-12-30T01:41:37.903Z,3.60
2018-12-30T01:44:27.667Z,3.80
2018-12-30T01:47:17.558Z,4.17
2018-12-30T01:50:10.901Z,5.55
2018-12-30T01:53:00.877Z,5.65
2018-12-30T01:55:50.737Z,4.95
2018-12-30T01:58:40.557Z,3.27
2018-12-30T02:01:30.425Z,6.35
2018-12-30T02:04:20.321Z,3.40
2018-12-30T02:07:10.327Z,6.10
2018-12-30T02:10:00.498Z,3.90
2018-12-30T02:12:50.214Z,3.80
2018-12-30T02:15:40.335Z,7.37
2018-12-30T02:18:29.909Z,4.97
2018-12-30T02:21:19.914Z,7.10
2018-12-30T02:24:09.773Z,4.30
2018-12-30T02:26:59.567Z,5.00
2018-12-30T02:29:52.297Z,4.85
2018-12-30T02:32:42.486Z,4.15
2018-12-30T02:35:32.408Z,9.98
2018-12-30T02:38:22.149Z,7.97
2018-12-30T02:41:12.147Z,3.05
2018-12-30T02:44:01.804Z,5.47
2018-12-30T02:46:51.604Z,4.60
2018-12-30T02:49:41.718Z,3.98
2018-12-30T02:52:31.444Z,2.70
2018-12-30T02:55:21.354Z,8.13
2018-12-30T02:58:10.937Z,4.42
2018-12-30T03:01:00.997Z,3.58
2018-12-30T03:03:50.945Z,6.05
2018-12-30T03:06:41.084Z,3.10
2018-12-30T03:09:31.243Z,7.10
2018-12-30T03:12:21.277Z,7.75
2018-12-30T03:15:11.207Z,5.45
2018-12-30T03:18:01.756Z,4.30
2018-12-30T03:20:51.525Z,10.63
2018-12-30T03:23:41.924Z,5.45
2018-12-30T03:26:32.129Z,9.55
2018-12-30T03:29:22.109Z,8.13
2018-12-30T03:32:14.832Z,6.47
2018-12-30T03:35:04.714Z,7.12
2018-12-30T03:37:54.598Z,4.50
2018-12-30T03:40:44.528Z,10.70
2018-12-30T03:43:34.655Z,7.75
2018-12-30T03:46:24.764Z,10.13
2018-12-30T03:49:14.323Z,10.10
2018-12-30T03:52:08.534Z,10.72
2018-12-30T03:54:55.926Z,10.58
2018-12-30T03:57:46.037Z,7.40
2018-12-30T04:00:35.894Z,10.58
2018-12-30T04:03:25.980Z,9.85
2018-12-30T04:06:16.075Z,8.90
2018-12-30T04:09:07.526Z,19.75
2018-12-30T04:11:57.678Z,7.60
2018-12-30T04:14:47.929Z,11.97
2018-12-30T04:17:37.577Z,5.80
2018-12-30T04:20:27.458Z,12.93
2018-12-30T04:23:17.437Z,12.50
2018-12-30T04:26:07.355Z,7.17
2018-12-30T04:28:57.605Z,8.78
2018-12-30T04:31:47.320Z,10.75
2018-12-30T04:34:37.457Z,9.58
2018-12-30T04:37:27.655Z,11.95
2018-12-30T04:40:18.159Z,15.48
2018-12-30T04:43:08.366Z,15.65
2018-12-30T04:45:58.105Z,6.87
2018-12-30T04:48:49.318Z,9.55
2018-12-30T04:51:40.028Z,10.23
2018-12-30T04:54:31.549Z,11.55
2018-12-30T04:57:23.148Z,11.88
2018-12-30T05:00:13.230Z,11.20
2018-12-30T05:03:04.010Z,8.40
2018-12-30T05:05:54.331Z,7.45
2018-12-30T05:08:44.353Z,12.98
2018-12-30T05:11:34.139Z,14.35
2018-12-30T05:14:23.820Z,12.33
2018-12-30T05:17:14.355Z,11.48
2018-12-30T05:20:04.440Z,15.75
2018-12-30T05:22:54.797Z,7.78
2018-12-30T05:25:49.658Z,12.47
2018-12-30T05:28:39.539Z,7.83
2018-12-30T05:31:29.207Z,11.53
2018-12-30T05:34:19.046Z,13.53
2018-12-30T05:37:08.966Z,10.43
2018-12-30T05:39:58.596Z,10.32
2018-12-30T05:42:48.859Z,10.00
2018-12-30T05:45:38.389Z,6.95
2018-12-30T05:48:28.429Z,4.35
2018-12-30T05:51:18.217Z,13.95
2018-12-30T05:54:08.348Z,10.05
2018-12-30T05:56:58.154Z,13.10
2018-12-30T05:59:48.159Z,8.85
2018-12-30T06:02:38.168Z,5.50
2018-12-30T06:05:28.319Z,8.58
2018-12-30T06:08:18.529Z,9.20
2018-12-30T06:11:08.495Z,12.70
2018-12-30T06:13:58.504Z,7.30
2018-12-30T06:16:48.645Z,5.92
2018-12-30T06:19:38.248Z,16.10
2018-12-30T06:22:28.115Z,6.00
2018-12-30T06:25:17.950Z,7.33
2018-12-30T06:28:07.878Z,14.53
2018-12-30T06:30:57.899Z,7.00
2018-12-30T06:33:47.569Z,4.00
2018-12-30T06:36:37.565Z,10.72
2018-12-30T06:39:28.048Z,8.03
2018-12-30T06:42:17.766Z,6.22
2018-12-30T06:45:07.654Z,8.23
2018-12-30T06:47:57.587Z,7.83
2018-12-30T06:50:47.597Z,11.75
2018-12-30T06:53:37.975Z,11.20
2018-12-30T06:56:27.539Z,9.13
2018-12-30T06:59:17.627Z,9.15
2018-12-30T07:02:07.719Z,9.13
2018-12-30T07:04:57.390Z,9.63
2018-12-30T07:07:48.273Z,8.73
2018-12-30T07:10:38.597Z,10.82
2018-12-30T07:13:28.435Z,6.87
2018-12-30T07:16:18.679Z,8.23
2018-12-30T07:19:08.227Z,7.35
2018-12-30T07:21:58.350Z,12.15
2018-12-30T07:24:48.478Z,8.25
2018-12-30T07:27:38.330Z,14.40
2018-12-30T07:30:28.330Z,9.58
2018-12-30T07:33:18.288Z,10.08
2018-12-30T07:36:07.959Z,10.40
2018-12-30T07:38:58.249Z,8.75
2018-12-30T07:41:47.878Z,12.30
2018-12-30T07:44:38.009Z,9.93
2018-12-30T07:47:27.675Z,7.10
2018-12-30T07:50:17.898Z,15.65
2018-12-30T07:53:13.607Z,15.63
2018-12-30T07:55:59.598Z,11.70
2018-12-30T07:58:50.605Z,14.30
2018-12-30T08:01:40.645Z,15.88
2018-12-30T08:04:30.219Z,14.68
2018-12-30T08:07:20.259Z,8.28
2018-12-30T08:10:10.591Z,12.07
2018-12-30T08:13:00.730Z,8.65
2018-12-30T08:15:50.809Z,9.95
2018-12-30T08:18:40.596Z,9.83
2018-12-30T08:21:30.526Z,9.80
2018-12-30T08:24:20.058Z,12.13
2018-12-30T08:27:09.735Z,14.50
2018-12-30T08:29:59.805Z,18.55
2018-12-30T08:32:50.298Z,12.58
2018-12-30T08:35:40.498Z,10.82
2018-12-30T08:38:30.439Z,13.80
2018-12-30T08:41:20.546Z,9.85
2018-12-30T08:44:10.439Z,10.38
2018-12-30T08:47:00.349Z,8.55
2018-12-30T08:49:52.715Z,11.40
2018-12-30T08:52:42.792Z,11.95
2018-12-30T08:55:34.337Z,11.55
2018-12-30T08:58:24.256Z,12.90
2018-12-30T09:01:14.407Z,13.25
2018-12-30T09:04:04.698Z,12.98
2018-12-30T09:06:54.590Z,16.55
2018-12-30T09:09:44.937Z,12.10
2018-12-30T09:12:35.368Z,14.95
2018-12-30T09:15:26.348Z,24.10
2018-12-30T09:18:16.949Z,13.98
2018-12-30T09:21:08.296Z,16.85
2018-12-30T09:24:01.277Z,12.93
2018-12-30T09:26:51.421Z,11.65
2018-12-30T09:29:41.346Z,10.88
2018-12-30T09:32:31.106Z,21.30
2018-12-30T09:35:21.267Z,18.85
2018-12-30T09:38:11.210Z,14.78
2018-12-30T09:41:00.976Z,13.90
2018-12-30T09:43:51.183Z,9.73
2018-12-30T09:46:41.218Z,24.80
2018-12-30T09:49:30.727Z,13.45
2018-12-30T09:52:20.589Z,16.67
2018-12-30T09:55:10.706Z,11.80
2018-12-30T09:58:01.041Z,15.65
2018-12-30T10:00:51.237Z,12.33
2018-12-30T10:03:41.229Z,9.53
2018-12-30T10:06:31.551Z,10.60
2018-12-30T10:09:21.505Z,15.00
2018-12-30T10:12:11.226Z,16.00
2018-12-30T10:15:09.255Z,12.10
2018-12-30T10:17:53.405Z,11.83
2018-12-30T10:20:43.637Z,16.80
2018-12-30T10:23:33.644Z,10.70
2018-12-30T10:26:24.667Z,16.62
2018-12-30T10:29:14.847Z,9.18
2018-12-30T10:32:04.508Z,14.60
2018-12-30T10:34:55.348Z,7.22
2018-12-30T10:37:45.621Z,10.75
2018-12-30T10:40:35.768Z,17.00
2018-12-30T10:43:25.596Z,18.57
2018-12-30T10:46:15.269Z,12.73
2018-12-30T10:49:04.958Z,14.05
2018-12-30T10:51:54.808Z,13.60
2018-12-30T10:54:44.670Z,21.00
2018-12-30T10:57:34.638Z,17.85
2018-12-30T11:00:27.278Z,11.18
2018-12-30T11:03:16.807Z,10.63
2018-12-30T11:06:06.907Z,14.25
2018-12-30T11:08:56.479Z,16.75
2018-12-30T11:11:46.604Z,15.80
2018-12-30T11:14:36.706Z,12.53
2018-12-30T11:17:27.029Z,16.25
2018-12-30T11:20:16.788Z,9.00
2018-12-30T11:23:09.408Z,15.15
2018-12-30T11:25:59.639Z,12.23
2018-12-30T11:28:49.344Z,15.58
2018-12-30T11:31:39.488Z,18.30
2018-12-30T11:34:29.281Z,13.13
2018-12-30T11:37:19.078Z,11.85
2018-12-30T11:40:09.158Z,14.38
2018-12-30T11:42:59.139Z,7.33
2018-12-30T11:45:48.846Z,10.68
2018-12-30T11:48:38.598Z,9.75
2018-12-30T11:51:28.468Z,5.55
2018-12-30T11:54:18.268Z,15.23
2018-12-30T11:57:08.069Z,16.90
2018-12-30T11:59:58.164Z,6.22
2018-12-30T12:02:48.035Z,12.47
2018-12-30T12:05:37.757Z,10.40
2018-12-30T12:08:27.606Z,14.93
2018-12-30T12:11:17.401Z,6.97
2018-12-30T12:14:07.190Z,8.10
2018-12-30T12:16:57.106Z,14.73
2018-12-30T12:19:46.819Z,16.52
2018-12-30T12:22:36.523Z,10.55
2018-12-30T12:25:26.575Z,15.90
2018-12-30T12:28:16.608Z,20.62
2018-12-30T12:31:06.366Z,23.57
2018-12-30T12:33:56.265Z,19.75
2018-12-30T12:36:46.238Z,13.28
2018-12-30T12:39:36.075Z,8.88
2018-12-30T12:42:25.790Z,11.10
2018-12-30T12:45:15.398Z,8.60
2018-12-30T12:48:08.529Z,8.50
2018-12-30T12:50:58.625Z,24.35
2018-12-30T12:53:48.378Z,9.50
2018-12-30T12:56:38.124Z,15.93
2018-12-30T12:59:27.828Z,7.05
2018-12-30T13:02:17.943Z,8.65
2018-12-30T13:05:07.715Z,9.25
2018-12-30T13:07:57.675Z,10.70
2018-12-30T13:10:50.737Z,9.18
2018-12-30T13:13:40.465Z,17.87
2018-12-30T13:16:30.817Z,14.00
2018-12-30T13:19:21.065Z,15.48
2018-12-30T13:22:11.075Z,16.52
2018-12-30T13:25:01.028Z,12.20
2018-12-30T13:27:50.818Z,17.12
2018-12-30T13:30:40.798Z,13.93
2018-12-30T13:33:30.959Z,10.35
2018-12-30T13:36:21.293Z,5.47
2018-12-30T13:39:11.037Z,11.75
2018-12-30T13:42:00.565Z,12.98
2018-12-30T13:44:50.389Z,8.18
2018-12-30T13:47:40.366Z,10.88
2018-12-30T13:50:29.806Z,19.02
2018-12-30T13:53:19.558Z,7.08
2018-12-30T13:56:09.691Z,13.48
2018-12-30T13:58:59.374Z,13.88
2018-12-30T14:01:49.027Z,7.45
2018-12-30T14:04:39.178Z,7.87
2018-12-30T14:07:29.195Z,7.78
2018-12-30T14:10:19.105Z,13.58
2018-12-30T14:13:08.891Z,9.73
2018-12-30T14:15:58.884Z,10.32
2018-12-30T14:18:50.113Z,7.65
2018-12-30T14:21:40.167Z,8.95
2018-12-30T14:24:29.731Z,13.43
2018-12-30T14:27:19.775Z,20.90
2018-12-30T14:30:09.986Z,13.70
2018-12-30T14:32:59.838Z,12.07
2018-12-30T14:35:49.575Z,21.73
2018-12-30T14:38:39.245Z,9.13
2018-12-30T14:41:29.437Z,14.58
2018-12-30T14:44:19.375Z,8.93
2018-12-30T14:47:09.569Z,7.45
2018-12-30T14:49:59.299Z,15.38
2018-12-30T14:52:49.277Z,10.48
2018-12-30T14:55:39.439Z,17.23
2018-12-30T14:58:29.367Z,10.72
2018-12-30T15:01:18.967Z,14.15
2018-12-30T15:04:09.198Z,19.25
2018-12-30T15:06:59.229Z,10.82
2018-12-30T15:09:49.079Z,11.22
2018-12-30T15:12:38.966Z,17.62
2018-12-30T15:15:29.027Z,15.60
2018-12-30T15:18:19.055Z,12.35
2018-12-30T15:21:09.923Z,16.95
2018-12-30T15:24:00.999Z,18.25
2018-12-30T15:26:52.407Z,15.68
2018-12-30T15:29:42.165Z,12.95
2018-12-30T15:32:32.378Z,15.18
2018-12-30T15:35:22.383Z,12.68
2018-12-30T15:38:12.210Z,6.87
2018-12-30T15:41:02.318Z,19.30
2018-12-30T15:43:52.367Z,12.55
2018-12-30T15:46:42.169Z,8.20
2018-12-30T15:49:31.806Z,24.12
2018-12-30T15:52:21.639Z,13.35
2018-12-30T15:55:19.219Z,12.25
2018-12-30T15:58:03.339Z,15.70
2018-12-30T16:00:53.297Z,19.27
2018-12-30T16:03:43.040Z,13.68
2018-12-30T16:06:32.848Z,11.73
2018-12-30T16:09:22.778Z,15.40
2018-12-30T16:12:12.729Z,12.58
2018-12-30T16:15:03.879Z,15.32
2018-12-30T16:17:53.098Z,29.10
2018-12-30T16:20:43.100Z,11.53
2018-12-30T16:23:33.432Z,23.22
2018-12-30T16:26:23.265Z,17.50
2018-12-30T16:29:13.145Z,13.15
2018-12-30T16:32:03.025Z,15.25
2018-12-30T16:34:52.827Z,9.28
2018-12-30T16:37:42.703Z,23.32
2018-12-30T16:40:35.425Z,16.32
2018-12-30T16:43:25.548Z,10.72
2018-12-30T16:46:15.116Z,22.87
2018-12-30T16:49:05.328Z,15.28
2018-12-30T16:51:54.979Z,6.67
2018-12-30T16:54:44.666Z,12.85
2018-12-30T16:57:34.840Z,22.20
2018-12-30T17:00:25.673Z,18.48
2018-12-30T17:03:21.751Z,12.25
2018-12-30T17:06:11.687Z,10.88
2018-12-30T17:09:01.966Z,12.50
2018-12-30T17:11:52.328Z,13.32
2018-12-30T17:19:01.605Z,13.95
2018-12-30T17:21:51.396Z,16.50
2018-12-30T17:24:41.032Z,14.38
2018-12-30T17:27:31.885Z,10.08
2018-12-30T17:30:21.606Z,22.40
2018-12-30T17:33:11.472Z,11.28
2018-12-30T17:36:01.289Z,17.77
2018-12-30T17:38:51.859Z,14.20
2018-12-30T17:41:41.957Z,20.08
2018-12-30T17:44:32.010Z,17.05
2018-12-30T17:47:21.537Z,17.85
2018-12-30T17:50:11.535Z,14.65
2018-12-30T17:53:01.538Z,12.50
2018-12-30T17:55:51.194Z,12.98
2018-12-30T17:58:42.349Z,16.42
2018-12-30T18:01:32.310Z,14.90
2018-12-30T18:04:22.388Z,14.03
2018-12-30T18:07:12.546Z,14.60
2018-12-30T18:10:02.816Z,15.43
2018-12-30T18:12:52.440Z,23.45
2018-12-30T18:15:46.836Z,18.20
2018-12-30T18:18:39.790Z,12.10
2018-12-30T18:21:29.679Z,10.40
2018-12-30T18:24:19.929Z,13.72
2018-12-30T18:27:10.059Z,11.43
2018-12-30T18:30:00.179Z,16.00
2018-12-30T18:32:49.930Z,12.40
2018-12-30T18:35:39.867Z,15.10
2018-12-30T18:38:29.628Z,13.72
2018-12-30T18:41:19.618Z,19.52
2018-12-30T18:44:09.647Z,13.50
2018-12-30T18:46:59.685Z,24.35
2018-12-30T18:49:49.330Z,19.50
2018-12-30T18:52:39.389Z,13.18
2018-12-30T18:55:29.367Z,14.40
2018-12-30T18:58:19.726Z,26.68
2018-12-30T19:01:09.795Z,17.98
2018-12-30T19:03:59.487Z,17.70
2018-12-30T19:06:49.811Z,27.77
2018-12-30T19:09:43.217Z,16.10
2018-12-30T19:12:33.246Z,21.02
2018-12-30T19:15:23.026Z,10.05
2018-12-30T19:18:13.114Z,17.92
2018-12-30T19:21:02.996Z,19.32
2018-12-30T19:23:52.897Z,19.05
2018-12-30T19:26:42.698Z,27.93
2018-12-30T19:29:32.889Z,24.35
2018-12-30T19:32:22.729Z,18.30
2018-12-30T19:35:12.737Z,19.40
2018-12-30T19:38:02.675Z,13.98
2018-12-30T19:40:52.786Z,20.02
2018-12-30T19:43:42.214Z,23.77
2018-12-30T19:46:32.004Z,18.42
2018-12-30T19:49:21.825Z,17.27
2018-12-30T19:52:11.597Z,20.90
2018-12-30T19:55:01.289Z,23.10
2018-12-30T19:57:51.489Z,24.75
2018-12-30T20:00:41.579Z,22.20
2018-12-30T20:03:31.146Z,21.23
2018-12-30T20:06:20.890Z,16.67
2018-12-30T20:09:10.849Z,27.65
2018-12-30T20:12:00.905Z,17.32
2018-12-30T20:14:51.066Z,17.10
2018-12-30T20:17:41.261Z,21.77
2018-12-30T20:20:31.366Z,24.37
2018-12-30T20:27:40.639Z,14.80
2018-12-30T20:30:30.289Z,18.45
2018-12-30T20:33:19.857Z,37.48
2018-12-30T20:36:09.806Z,29.98
2018-12-30T20:39:00.089Z,32.67
2018-12-30T20:41:49.705Z,37.80
2018-12-30T20:44:39.406Z,29.23
2018-12-30T20:47:29.165Z,22.10
2018-12-30T20:50:19.096Z,18.73
2018-12-30T20:53:09.266Z,21.17
2018-12-30T20:55:59.052Z,29.23
2018-12-30T20:58:48.786Z,25.05
2018-12-30T21:01:38.519Z,22.15
2018-12-30T21:04:28.556Z,30.95
2018-12-30T21:07:18.655Z,19.10
2018-12-30T21:10:08.531Z,20.37
2018-12-30T21:12:58.946Z,29.50
2018-12-30T21:15:48.898Z,20.02
2018-12-30T21:18:39.130Z,28.07
2018-12-30T21:21:28.999Z,28.10
2018-12-30T21:24:19.356Z,18.67
2018-12-30T21:27:09.162Z,20.40
2018-12-30T21:29:59.069Z,21.93
2018-12-30T21:32:48.930Z,22.37
2018-12-30T21:35:39.170Z,19.45
2018-12-30T21:38:28.819Z,24.25
2018-12-30T21:41:18.475Z,40.73
2018-12-30T21:44:08.490Z,23.52
2018-12-30T21:46:58.579Z,23.77
2018-12-30T21:49:48.605Z,24.85
2018-12-30T21:52:38.591Z,18.20
2018-12-30T21:55:28.355Z,24.15
2018-12-30T21:58:18.319Z,20.65
2018-12-30T22:01:08.146Z,23.07
2018-12-30T22:03:58.048Z,25.43
2018-12-30T22:06:48.767Z,26.77
2018-12-30T22:09:40.877Z,23.32
2018-12-30T22:12:31.068Z,24.02
2018-12-30T22:15:21.335Z,23.07
2018-12-30T22:18:11.049Z,24.50
2018-12-30T22:21:01.139Z,28.07
2018-12-30T22:23:51.971Z,13.78
2018-12-30T22:26:41.826Z,23.42
2018-12-30T22:29:31.590Z,34.50
2018-12-30T22:32:21.859Z,21.65
2018-12-30T22:35:11.879Z,23.18
2018-12-30T22:38:01.669Z,24.63
2018-12-30T22:40:51.585Z,28.25
2018-12-30T22:43:41.446Z,22.02
2018-12-30T22:46:31.571Z,20.12
2018-12-30T22:49:21.409Z,25.48
2018-12-30T22:52:14.305Z,22.93
2018-12-30T22:55:04.415Z,16.65
2018-12-30T22:57:54.407Z,19.37
2018-12-30T23:01:01.357Z,24.77
2018-12-30T23:03:51.569Z,19.32
2018-12-30T23:06:41.169Z,17.55
2018-12-30T23:09:31.122Z,22.73
2018-12-30T23:12:20.809Z,20.02
2018-12-30T23:15:14.557Z,14.23
2018-12-30T23:18:04.279Z,19.07
2018-12-30T23:20:54.448Z,18.92
2018-12-30T23:23:43.915Z,17.52
2018-12-30T23:26:34.069Z,16.20
2018-12-30T23:29:25.307Z,17.60
2018-12-30T23:32:16.787Z,15.35
2018-12-30T23:35:07.069Z,18.87
2018-12-30T23:37:56.890Z,16.27
2018-12-30T23:40:48.589Z,22.13
2018-12-30T23:43:38.619Z,29.98
2018-12-30T23:46:28.478Z,28.87
2018-12-30T23:49:19.159Z,19.30
2018-12-30T23:52:12.852Z,16.55
2018-12-30T23:55:04.227Z,19.55
2018-12-30T23:57:54.204Z,17.12
